Главная страница
METAR-TAF:

METAR-TAF

Аэропорты :

Риека, Хорватия

широта: 45-13N, долгота: 014-35E, высота над уровнем моря: 85 м

Текущие метеонаблюдения

Эта сводка был подготовлена 8 часа и 12 минут назад, в 05:30 UTC
Ветер 4 Узел от северо-северо-восточный
Температура 28°C
Влажность 42%
Давление 1015 hPa
Видимость 10 км и более
Нет облачности ниже 1500 м, и нет кучево-дождевой облачности

METAR: LDRI 210530Z 03004KT CAVOK 28/14 Q1015

Время: 15:42 (13:42 UTC)

Прогноз

Эта сводка был подготовлена 8 часа и 17 минут назад, в 05:25 UTC
Прогноз действительный с 21-го 06 UTC до 22-го 06 UTC
Ветер 6 Узел от восточно-северо-восточный
Видимость 10 км и более
Нет облачности ниже 1500 м, и нет кучево-дождевой облачности
временами
С 21-го 11 UTC до 21-го 18 UTC
Ветер 6 Узел от юго-восточный

TAF: LDRI 210525Z 2106/2206 06006KT CAVOK TX34/2112Z TN24/2203Z TEMPO 2111/2118 14006KT

Метеонаблюдения и прогнозы для более 4000 аэропортов (сводки METAR и TAF).

Имеющиеся станции представлены на карте желтыми и красными точками.

Чтобы увидеть название станции, наведите на нее мышь.

Затем щелкните, чтобы увидеть метеонаблюдения и метеопрогнозы.

Управление картой: чтобы увеличить масштаб, щелкните зеленые кнопки с черным крестиком; чтобы уменьшить масштаб, щелкните зеленую кнопку с тире; для просмотра соседних карт щелкайте зеленые стрелки.


METAR-TAF: